Time;durP1;ratioP1;P1;durP2;ratioP2;P2;SDS_P1;SDS_P2;PMS_P1;PMS_P2;Temp;Humidity;BMP_temperature;BMP_pressure;BME280_temperature;BME280_humidity;BME280_pressure;Samples;Min_cycle;Max_cycle;Signal;HPM_P1;HPM_P2
2022/11/13 00:00:27;;;;;;;25.70;14.63;;;;;;;6.12;100.00;102062.97;5230322;28;20035;-76
2022/11/13 00:02:58;;;;;;;24.65;14.63;;;;;;;6.05;100.00;102062.06;5233602;28;20135;-76
2022/11/13 00:05:28;;;;;;;22.45;14.15;;;;;;;5.85;100.00;102070.56;5230229;28;20041;-76
2022/11/13 00:07:58;;;;;;;24.83;13.63;;;;;;;5.63;100.00;102068.63;5222738;28;20192;-75
2022/11/13 00:10:29;;;;;;;20.13;12.30;;;;;;;5.63;100.00;102073.81;5230984;28;20120;-75
2022/11/13 00:12:59;;;;;;;22.23;12.15;;;;;;;5.43;100.00;102065.84;5232003;28;20501;-76
2022/11/13 00:15:29;;;;;;;21.23;12.55;;;;;;;5.27;100.00;102068.31;5234233;28;20455;-75
2022/11/13 00:18:01;;;;;;;22.20;13.00;;;;;;;5.12;100.00;102065.56;5230901;28;20048;-76
2022/11/13 00:20:31;;;;;;;22.35;12.63;;;;;;;5.19;100.00;102061.31;5234664;28;20056;-76
2022/11/13 00:23:02;;;;;;;26.05;14.85;;;;;;;5.16;100.00;102051.78;5230957;28;20060;-76
2022/11/13 00:25:34;;;;;;;27.85;14.82;;;;;;;5.15;100.00;102050.03;5234787;28;20047;-76
2022/11/13 00:28:04;;;;;;;27.90;15.93;;;;;;;5.29;100.00;102057.97;5226936;28;20059;-76
2022/11/13 00:30:35;;;;;;;28.85;15.93;;;;;;;5.14;100.00;102052.63;5230329;28;20052;-76
2022/11/13 00:33:05;;;;;;;29.77;15.48;;;;;;;5.27;100.00;102044.97;5224583;28;20135;-76
2022/11/13 00:35:35;;;;;;;26.02;14.80;;;;;;;5.23;100.00;102034.56;5228900;28;20244;-76
2022/11/13 00:38:06;;;;;;;24.45;13.95;;;;;;;5.05;100.00;102031.78;5219459;28;20075;-73
2022/11/13 00:40:36;;;;;;;21.50;14.27;;;;;;;5.03;100.00;102033.50;5221518;28;20294;-75
2022/11/13 00:43:06;;;;;;;22.10;13.93;;;;;;;5.09;100.00;102025.78;5223468;28;20043;-76
2022/11/13 00:45:37;;;;;;;23.65;13.95;;;;;;;5.00;100.00;102023.97;5224181;28;20040;-76
2022/11/13 00:48:07;;;;;;;22.40;13.77;;;;;;;4.90;100.00;102032.53;5223867;28;20410;-75
2022/11/13 00:50:37;;;;;;;26.10;15.07;;;;;;;4.86;100.00;102028.16;5220223;28;20239;-75
2022/11/13 00:53:07;;;;;;;24.77;14.52;;;;;;;4.83;100.00;102020.34;5224392;28;20064;-75
2022/11/13 00:55:38;;;;;;;29.33;15.75;;;;;;;4.80;100.00;102022.91;5217423;28;20037;-76
2022/11/13 00:58:09;;;;;;;24.02;15.25;;;;;;;4.88;100.00;102026.47;5219910;28;20053;-75
2022/11/13 01:00:42;;;;;;;31.95;16.08;;;;;;;4.96;100.00;102026.53;5219878;28;20064;-75
2022/11/13 01:03:15;;;;;;;26.35;15.48;;;;;;;4.92;100.00;102020.44;5222023;28;20044;-76
2022/11/13 01:05:46;;;;;;;25.52;13.98;;;;;;;4.85;100.00;102013.47;5220947;28;20112;-76
2022/11/13 01:08:16;;;;;;;22.27;13.88;;;;;;;4.77;100.00;102028.06;5221403;28;20459;-76
2022/11/13 01:10:48;;;;;;;25.20;14.55;;;;;;;4.76;100.00;102026.31;5222382;28;20029;-76
2022/11/13 01:13:18;;;;;;;21.73;12.90;;;;;;;4.65;100.00;102025.31;5222205;28;20024;-75
2022/11/13 01:15:48;;;;;;;22.25;13.32;;;;;;;4.59;100.00;102030.44;5229498;28;20040;-75
2022/11/13 01:18:18;;;;;;;23.88;13.63;;;;;;;4.48;100.00;102029.44;5230254;28;20426;-76
2022/11/13 01:20:49;;;;;;;22.55;12.07;;;;;;;4.35;100.00;102034.44;5223518;28;20040;-75
2022/11/13 01:23:26;;;;;;;21.83;12.63;;;;;;;4.15;100.00;102026.41;5231133;28;20541;-76
2022/11/13 01:26:05;;;;;;;22.55;12.60;;;;;;;4.20;100.00;102029.94;5188363;28;20394;-75
2022/11/13 01:28:37;;;;;;;33.38;18.48;;;;;;;4.17;100.00;102029.91;5220095;28;20036;-75
2022/11/13 01:31:09;;;;;;;34.30;18.75;;;;;;;4.16;100.00;102027.28;5226770;28;20021;-76
2022/11/13 01:33:40;;;;;;;30.52;17.08;;;;;;;4.40;100.00;102023.31;5232500;28;20066;-76
2022/11/13 01:36:13;;;;;;;28.35;16.05;;;;;;;4.16;100.00;102022.13;5229853;28;20028;-74
2022/11/13 01:38:44;;;;;;;28.92;14.90;;;;;;;4.07;100.00;102020.28;5222193;28;20029;-76
2022/11/13 01:41:18;;;;;;;24.92;13.60;;;;;;;4.11;100.00;102018.59;5225539;28;20023;-75
2022/11/13 01:43:49;;;;;;;25.02;13.95;;;;;;;4.02;100.00;102009.00;5229469;28;20061;-76
2022/11/13 01:46:20;;;;;;;23.63;12.80;;;;;;;3.95;100.00;102019.25;5231222;28;20055;-76
2022/11/13 01:49:14;;;;;;;21.35;11.88;;;;;;;3.95;100.00;102014.91;5226868;28;20207;-76
2022/11/13 01:51:49;;;;;;;21.25;11.82;;;;;;;3.75;100.00;102007.75;5223837;28;20597;-76
2022/11/13 01:54:24;;;;;;;19.05;11.27;;;;;;;3.75;100.00;102008.59;5230658;28;20052;-76
2022/11/13 01:56:55;;;;;;;18.80;11.82;;;;;;;3.66;100.00;102013.66;5231280;28;20040;-76
2022/11/13 01:59:29;;;;;;;18.45;12.07;;;;;;;3.72;100.00;102013.72;5229817;28;20035;-75
2022/11/13 02:02:00;;;;;;;20.13;12.32;;;;;;;3.72;100.00;102005.97;5223099;28;20032;-76
2022/11/13 02:04:31;;;;;;;22.73;12.50;;;;;;;3.77;100.00;101998.28;5228603;28;20521;-75
2022/11/13 02:07:11;;;;;;;18.77;12.00;;;;;;;3.80;100.00;101996.59;5225957;28;20113;-76
2022/11/13 02:09:45;;;;;;;19.83;12.00;;;;;;;3.82;100.00;101986.28;5225331;28;20086;-76
2022/11/13 02:12:23;;;;;;;21.15;12.05;;;;;;;3.81;100.00;101982.81;5230908;28;20020;-75
2022/11/13 02:14:56;;;;;;;22.05;11.77;;;;;;;3.75;100.00;101992.25;5230502;28;20024;-76
2022/11/13 02:17:31;;;;;;;20.88;12.48;;;;;;;3.61;100.00;101989.44;5230486;28;20033;-76
2022/11/13 02:20:04;;;;;;;20.27;12.00;;;;;;;3.69;100.00;101987.84;5234211;28;20025;-76
2022/11/13 02:22:40;;;;;;;23.92;13.02;;;;;;;3.74;100.00;101981.00;5237498;28;20055;-76
2022/11/13 02:25:12;;;;;;;18.48;12.15;;;;;;;3.61;100.00;101979.09;5230894;28;20051;-75
2022/11/13 02:27:45;;;;;;;18.50;12.30;;;;;;;3.47;100.00;101981.44;5235917;28;20017;-75
2022/11/13 02:30:25;;;;;;;21.90;12.73;;;;;;;3.49;100.00;101972.00;5233788;28;20028;-76
2022/11/13 02:32:57;;;;;;;20.55;12.13;;;;;;;3.47;100.00;101982.31;5226210;28;20394;-76
2022/11/13 02:35:36;;;;;;;20.85;12.15;;;;;;;3.43;100.00;101979.66;5233899;28;20390;-75
2022/11/13 02:38:06;;;;;;;21.38;12.00;;;;;;;3.43;100.00;101977.97;5224442;28;20025;-75
2022/11/13 02:40:38;;;;;;;25.13;12.65;;;;;;;3.37;100.00;101977.00;5232347;28;20025;-76
2022/11/13 02:43:08;;;;;;;20.08;12.45;;;;;;;3.55;100.00;101977.28;5235320;28;20429;-76
2022/11/13 02:45:38;;;;;;;19.15;11.98;;;;;;;3.28;100.00;101979.41;5233237;28;20024;-75
2022/11/13 02:48:08;;;;;;;20.75;12.85;;;;;;;3.36;100.00;101980.41;5232345;28;20109;-76
2022/11/13 02:50:39;;;;;;;22.27;13.30;;;;;;;3.49;100.00;101972.00;5234801;28;20020;-75
2022/11/13 02:53:10;;;;;;;25.33;13.00;;;;;;;3.38;100.00;101978.72;5233618;28;20111;-75
2022/11/13 02:55:40;;;;;;;20.02;11.80;;;;;;;3.21;100.00;101980.16;5232311;28;20041;-76
2022/11/13 02:58:10;;;;;;;19.40;12.02;;;;;;;3.22;100.00;101976.75;5235339;28;20050;-76
2022/11/13 03:00:41;;;;;;;23.42;12.10;;;;;;;3.34;100.00;101976.94;5230018;28;20486;-76
2022/11/13 03:03:11;;;;;;;21.75;13.02;;;;;;;3.27;100.00;101981.16;5226522;28;20060;-75
2022/11/13 03:05:41;;;;;;;20.92;12.73;;;;;;;3.21;100.00;101975.00;5235967;28;20090;-76
2022/11/13 03:08:12;;;;;;;25.17;13.65;;;;;;;3.36;100.00;101970.09;5224693;28;20483;-76
2022/11/13 03:10:42;;;;;;;23.25;12.85;;;;;;;3.17;100.00;101975.81;5232974;28;20410;-75
2022/11/13 03:13:12;;;;;;;23.42;13.68;;;;;;;3.27;100.00;101973.38;5233948;28;20029;-75
2022/11/13 03:15:43;;;;;;;26.20;14.27;;;;;;;3.33;100.00;101972.63;5235255;28;20013;-75
2022/11/13 03:18:13;;;;;;;21.50;12.65;;;;;;;3.31;100.00;101966.53;5233259;28;20040;-76
2022/11/13 03:20:44;;;;;;;20.75;12.43;;;;;;;3.43;100.00;101969.31;5235308;28;20107;-73
2022/11/13 03:23:14;;;;;;;22.80;12.45;;;;;;;3.29;100.00;101971.69;5232573;28;20024;-75
2022/11/13 03:25:44;;;;;;;21.63;13.20;;;;;;;3.28;100.00;101976.81;5233845;28;20025;-76
2022/11/13 03:28:14;;;;;;;21.08;12.55;;;;;;;3.20;100.00;101973.25;5231063;28;20032;-76
2022/11/13 03:30:46;;;;;;;26.00;13.25;;;;;;;3.31;100.00;101966.53;5223208;28;20043;-75
2022/11/13 03:33:16;;;;;;;23.98;14.60;;;;;;;3.43;100.00;101966.75;5231189;28;20478;-73
2022/11/13 03:35:47;;;;;;;22.83;14.63;;;;;;;3.40;100.00;101961.53;5227397;28;20029;-75
2022/11/13 03:38:17;;;;;;;23.00;14.18;;;;;;;3.45;100.00;101963.34;5224891;28;20029;-75
2022/11/13 03:40:47;;;;;;;22.52;13.48;;;;;;;3.21;100.00;101965.53;5231979;28;20029;-75
2022/11/13 03:43:18;;;;;;;18.95;11.98;;;;;;;3.48;100.00;101957.34;5233500;28;20025;-75
2022/11/13 03:45:48;;;;;;;20.33;11.80;;;;;;;3.45;100.00;101960.75;5233601;28;20037;-75
2022/11/13 03:48:19;;;;;;;21.65;13.35;;;;;;;3.37;100.00;101964.91;5232022;28;20466;-75
2022/11/13 03:50:52;;;;;;;21.48;12.35;;;;;;;3.31;100.00;101961.38;5233595;28;20025;-75
2022/11/13 03:53:23;;;;;;;20.45;12.23;;;;;;;3.31;100.00;101961.38;5233341;28;20497;-75
2022/11/13 03:55:53;;;;;;;21.90;12.52;;;;;;;3.21;100.00;101972.41;5233375;28;20056;-75
2022/11/13 03:58:23;;;;;;;22.55;13.10;;;;;;;3.21;100.00;101965.53;5229433;28;20027;-75
2022/11/13 04:00:54;;;;;;;19.50;12.07;;;;;;;3.28;100.00;101962.22;5224462;28;20450;-75
2022/11/13 04:03:24;;;;;;;19.38;12.38;;;;;;;3.22;100.00;101950.91;5233931;28;20036;-75
2022/11/13 04:05:55;;;;;;;17.85;10.50;;;;;;;3.36;100.00;101944.25;5233410;28;20186;-75
2022/11/13 04:08:25;;;;;;;16.77;9.93;;;;;;;3.07;100.00;101945.50;5224648;28;20081;-75
2022/11/13 04:11:05;;;;;;;15.77;9.88;;;;;;;2.67;100.00;101954.25;5231476;28;20371;-75
2022/11/13 04:13:35;;;;;;;16.90;9.63;;;;;;;2.75;100.00;101956.97;5227357;28;20055;-75
2022/11/13 04:16:06;;;;;;;17.42;10.10;;;;;;;2.86;100.00;101958.03;5233502;28;20036;-75
2022/11/13 04:18:36;;;;;;;15.48;9.23;;;;;;;2.91;100.00;101953.81;5230937;28;20033;-75
2022/11/13 04:21:06;;;;;;;18.20;11.10;;;;;;;2.61;100.00;101950.69;5235157;28;20021;-75
2022/11/13 04:23:37;;;;;;;19.42;11.00;;;;;;;2.73;100.00;101944.06;5231505;28;20017;-76
2022/11/13 04:26:07;;;;;;;17.70;11.70;;;;;;;2.81;100.00;101941.59;5234135;28;20107;-76
2022/11/13 04:28:37;;;;;;;20.27;11.90;;;;;;;2.59;100.00;101942.06;5228891;28;20052;-75
2022/11/13 04:31:08;;;;;;;21.02;11.18;;;;;;;2.63;100.00;101930.94;5230024;28;20474;-75
2022/11/13 04:33:38;;;;;;;19.02;11.68;;;;;;;2.49;100.00;101933.28;5231083;28;20029;-75
2022/11/13 04:36:08;;;;;;;17.58;9.65;;;;;;;2.50;100.00;101934.16;5231171;28;20145;-75
2022/11/13 04:38:38;;;;;;;12.07;8.40;;;;;;;2.49;100.00;101933.28;5223470;28;20104;-76
2022/11/13 04:44:00;;;;;;;12.23;8.43;;;;;;;2.39;100.00;101928.81;5227241;28;20059;-75
2022/11/13 04:46:30;;;;;;;12.35;8.30;;;;;;;2.25;100.00;101932.81;5233577;28;20302;-75
2022/11/13 04:49:01;;;;;;;12.50;8.70;;;;;;;2.18;100.00;101935.25;5227496;28;20059;-75
2022/11/13 04:51:31;;;;;;;13.40;8.25;;;;;;;2.19;100.00;101932.69;5230931;28;20172;-75
2022/11/13 04:54:01;;;;;;;16.33;9.43;;;;;;;2.24;100.00;101936.25;5235431;28;20077;-75
2022/11/13 04:56:33;;;;;;;12.38;8.05;;;;;;;2.36;100.00;101930.44;5227894;28;20041;-75
2022/11/13 04:59:03;;;;;;;14.00;8.55;;;;;;;2.31;100.00;101932.94;5231236;28;20444;-76
2022/11/13 05:01:35;;;;;;;12.30;7.43;;;;;;;2.36;100.00;101927.88;5229948;28;20024;-75
2022/11/13 05:04:05;;;;;;;11.75;8.15;;;;;;;2.06;100.00;101933.31;5226880;28;20031;-75
2022/11/13 05:06:35;;;;;;;10.27;6.82;;;;;;;2.12;100.00;101935.09;5230141;28;20028;-75
2022/11/13 05:09:06;;;;;;;11.70;7.30;;;;;;;2.34;100.00;101925.25;5223558;28;20207;-75
2022/11/13 05:11:36;;;;;;;11.68;7.68;;;;;;;1.94;100.00;101924.44;5234426;28;20039;-75
2022/11/13 05:14:07;;;;;;;13.55;8.55;;;;;;;1.95;100.00;101916.75;5230404;28;20119;-75
2022/11/13 05:16:37;;;;;;;13.27;8.93;;;;;;;1.86;100.00;101915.69;5233104;28;20031;-76
2022/11/13 05:19:07;;;;;;;14.52;9.27;;;;;;;1.87;100.00;101914.84;5229764;28;20029;-76
2022/11/13 05:21:38;;;;;;;16.13;9.07;;;;;;;2.11;100.00;101917.91;5233369;28;20028;-76
2022/11/13 05:24:10;;;;;;;12.15;8.00;;;;;;;2.40;100.00;101916.75;5229062;28;20029;-75
2022/11/13 05:26:41;;;;;;;11.95;8.23;;;;;;;2.22;100.00;101908.69;5224504;28;20013;-73
2022/11/13 05:29:11;;;;;;;12.02;7.90;;;;;;;2.20;100.00;101906.06;5231111;28;20413;-76
2022/11/13 05:31:41;;;;;;;12.07;7.45;;;;;;;2.27;100.00;101899.31;5230007;28;20021;-76
2022/11/13 05:34:12;;;;;;;15.30;8.98;;;;;;;2.04;100.00;101906.63;5232731;28;20036;-74
2022/11/13 05:36:42;;;;;;;22.40;9.60;;;;;;;2.03;100.00;101898.84;5225854;28;20020;-78
2022/11/13 05:39:12;;;;;;;20.30;10.35;;;;;;;1.97;100.00;101902.16;5224823;28;20039;-78
2022/11/13 05:41:43;;;;;;;23.08;10.98;;;;;;;1.80;100.00;101905.25;5231405;28;20056;-76
2022/11/13 05:44:13;;;;;;;24.98;11.60;;;;;;;1.99;100.00;101908.22;5230345;28;20047;-76
2022/11/13 05:46:43;;;;;;;31.67;13.40;;;;;;;2.00;100.00;101898.78;5232055;28;20070;-75
2022/11/13 05:49:14;;;;;;;22.23;12.35;;;;;;;1.98;100.00;101901.34;5231015;28;20484;-75
2022/11/13 05:51:44;;;;;;;32.17;12.63;;;;;;;1.96;100.00;101903.00;5230313;28;20039;-75
2022/11/13 05:54:15;;;;;;;37.17;13.18;;;;;;;1.85;100.00;101896.75;5230594;28;20070;-76
2022/11/13 05:56:45;;;;;;;56.78;15.88;;;;;;;1.91;100.00;101901.16;5229830;28;20020;-75
2022/11/13 05:59:15;;;;;;;32.60;12.63;;;;;;;1.93;100.00;101894.34;5231972;28;20034;-75
2022/11/13 06:01:45;;;;;;;36.00;12.55;;;;;;;2.02;100.00;101897.13;5231171;28;20025;-76
2022/11/13 06:04:16;;;;;;;32.40;12.88;;;;;;;2.21;100.00;101889.78;5230767;28;20054;-75
2022/11/13 06:06:46;;;;;;;43.75;13.05;;;;;;;2.03;100.00;101893.69;5225530;28;20013;-76
2022/11/13 06:09:17;;;;;;;39.85;14.50;;;;;;;2.07;100.00;101886.06;5223534;28;20516;-75
2022/11/13 06:11:47;;;;;;;31.95;13.18;;;;;;;2.16;100.00;101882.78;5231927;28;20024;-75
2022/11/13 06:14:18;;;;;;;40.03;14.38;;;;;;;2.13;100.00;101882.75;5231161;28;20099;-76
2022/11/13 06:16:48;;;;;;;44.58;15.05;;;;;;;2.09;100.00;101886.06;5230984;28;20035;-75
2022/11/13 06:19:19;;;;;;;46.03;13.73;;;;;;;2.06;100.00;101891.16;5229628;28;20017;-76
2022/11/13 06:21:49;;;;;;;55.17;13.77;;;;;;;1.96;100.00;101886.69;5228800;28;20079;-76
2022/11/13 06:24:19;;;;;;;31.83;13.48;;;;;;;2.16;100.00;101881.06;5226748;28;20032;-76
2022/11/13 06:26:50;;;;;;;39.47;13.95;;;;;;;2.11;100.00;101877.53;5229295;28;20539;-76
2022/11/13 06:29:20;;;;;;;64.00;14.32;;;;;;;2.17;100.00;101877.63;5225203;28;20021;-75
2022/11/13 06:31:50;;;;;;;23.90;12.93;;;;;;;2.22;100.00;101882.91;5220494;28;20045;-76
2022/11/13 06:34:21;;;;;;;38.17;13.07;;;;;;;2.01;100.00;101879.91;5231421;28;20063;-75
2022/11/13 06:36:51;;;;;;;37.17;12.80;;;;;;;2.05;100.00;101880.00;5226812;28;20082;-75
2022/11/13 06:39:21;;;;;;;26.15;12.18;;;;;;;1.98;100.00;101880.72;5224339;28;20082;-76
2022/11/13 06:41:51;;;;;;;32.08;13.52;;;;;;;2.02;100.00;101877.34;5230607;28;20242;-76
2022/11/13 06:44:22;;;;;;;34.28;13.70;;;;;;;1.94;100.00;101873.75;5231088;28;20029;-76
2022/11/13 06:46:52;;;;;;;19.50;12.77;;;;;;;2.13;100.00;101875.00;5229837;28;20422;-75
2022/11/13 06:49:22;;;;;;;27.58;13.07;;;;;;;2.35;100.00;101877.13;5223788;28;20040;-75
2022/11/13 06:51:53;;;;;;;21.70;13.70;;;;;;;2.50;100.00;101873.09;5229645;28;20044;-76
2022/11/13 06:54:23;;;;;;;30.38;15.32;;;;;;;2.36;100.00;101886.59;5228280;28;20040;-76
2022/11/13 06:56:53;;;;;;;37.90;17.95;;;;;;;2.59;100.00;101873.28;5224950;28;20029;-75
2022/11/13 06:59:24;;;;;;;26.10;16.02;;;;;;;2.67;100.00;101878.56;5228028;28;20037;-74
2022/11/13 07:01:54;;;;;;;30.33;16.65;;;;;;;2.63;100.00;101879.34;5231843;28;20055;-76
2022/11/13 07:04:24;;;;;;;32.55;16.15;;;;;;;2.73;100.00;101884.72;5229872;28;20036;-76
2022/11/13 07:06:54;;;;;;;28.27;16.60;;;;;;;2.96;100.00;101885.06;5228907;28;20446;-76
2022/11/13 07:09:25;;;;;;;35.38;15.60;;;;;;;2.89;100.00;101884.09;5229662;28;20035;-75
2022/11/13 07:11:55;;;;;;;58.78;17.42;;;;;;;2.92;100.00;101876.41;5231068;28;20032;-75
2022/11/13 07:14:25;;;;;;;29.70;15.52;;;;;;;3.22;100.00;101881.19;5233734;28;20086;-76
2022/11/13 07:16:56;;;;;;;64.57;17.10;;;;;;;3.16;100.00;101883.69;5230860;28;20082;-76
2022/11/13 07:19:26;;;;;;;34.45;16.02;;;;;;;3.42;100.00;101874.56;5228083;28;20060;-76
2022/11/13 07:21:56;;;;;;;61.03;14.75;;;;;;;3.10;100.00;101883.56;5234754;28;20050;-75
2022/11/13 07:24:27;;;;;;;85.07;17.05;;;;;;;3.04;100.00;101881.75;5233298;28;20039;-75
2022/11/13 07:26:57;;;;;;;31.52;15.60;;;;;;;3.32;100.00;101877.84;5235510;28;20031;-75
2022/11/13 07:29:27;;;;;;;38.97;15.63;;;;;;;3.29;100.00;101885.56;5233406;28;20029;-76
2022/11/13 07:31:57;;;;;;;68.00;15.73;;;;;;;3.21;100.00;101884.59;5235610;28;20067;-76
2022/11/13 07:34:28;;;;;;;71.07;16.10;;;;;;;3.36;100.00;101890.00;5228359;28;20029;-76
2022/11/13 07:36:58;;;;;;;62.47;16.75;;;;;;;3.30;100.00;101895.94;5224573;28;20067;-75
2022/11/13 07:39:28;;;;;;;43.63;15.98;;;;;;;3.32;100.00;101901.09;5228168;28;20470;-75
2022/11/13 07:41:59;;;;;;;45.38;15.95;;;;;;;3.44;100.00;101890.97;5232672;28;20029;-75
2022/11/13 07:44:29;;;;;;;69.00;16.90;;;;;;;3.32;100.00;101893.34;5228441;28;20028;-75
2022/11/13 07:47:00;;;;;;;61.38;15.80;;;;;;;3.35;100.00;101885.69;5226838;28;20032;-75
2022/11/13 07:49:30;;;;;;;36.83;17.33;;;;;;;3.59;100.00;101882.56;5233587;28;20055;-76
2022/11/13 07:52:00;;;;;;;27.45;16.15;;;;;;;3.72;100.00;101876.72;5235825;28;20029;-75
2022/11/13 07:54:30;;;;;;;27.58;15.65;;;;;;;3.94;100.00;101875.28;5229125;28;20025;-75
2022/11/13 07:57:01;;;;;;;29.40;15.27;;;;;;;3.90;100.00;101871.78;5233294;28;20453;-75
2022/11/13 07:59:31;;;;;;;32.15;15.23;;;;;;;4.07;100.00;101878.00;5235680;28;20050;-76
2022/11/13 08:02:02;;;;;;;26.15;15.25;;;;;;;4.33;100.00;101879.16;5232317;28;20028;-75
2022/11/13 08:04:32;;;;;;;74.63;14.95;;;;;;;4.20;100.00;101879.91;5225551;28;20025;-75
2022/11/13 08:07:02;;;;;;;28.55;15.20;;;;;;;4.49;100.00;101877.59;5224957;28;20028;-75
2022/11/13 08:09:32;;;;;;;24.92;14.75;;;;;;;4.68;100.00;101874.31;5224743;28;20511;-75
2022/11/13 08:12:03;;;;;;;23.65;14.93;;;;;;;4.75;100.00;101871.81;5225786;28;20030;-75
2022/11/13 08:14:33;;;;;;;38.17;15.32;;;;;;;4.56;100.00;101869.91;5219398;28;20485;-76
2022/11/13 08:17:03;;;;;;;29.05;14.57;;;;;;;4.63;100.00;101876.00;5221891;28;20028;-75
2022/11/13 08:19:34;;;;;;;39.50;15.55;;;;;;;4.66;100.00;101868.28;5229531;28;20021;-75
2022/11/13 08:22:04;;;;;;;26.83;15.75;;;;;;;4.74;100.00;101864.91;5226982;28;20475;-76
2022/11/13 08:24:34;;;;;;;38.83;17.17;;;;;;;4.89;100.00;101875.38;5233891;28;20016;-76
2022/11/13 08:27:06;;;;;;;38.55;17.67;;;;;;;5.00;100.00;101873.72;5225778;28;20435;-73
2022/11/13 08:29:36;;;;;;;34.83;16.67;;;;;;;5.35;100.00;101876.56;5223250;28;20486;-78
2022/11/13 08:32:07;;;;;;;38.53;17.65;;;;;;;5.35;100.00;101877.44;5225406;28;20037;-78
2022/11/13 08:34:38;;;;;;;75.15;18.05;;;;;;;5.62;100.00;101872.41;5226458;28;20043;-77
2022/11/13 08:37:08;;;;;;;33.65;17.77;;;;;;;6.08;100.00;101869.19;5220164;28;20055;-78
2022/11/13 08:39:38;;;;;;;33.30;16.63;;;;;;;6.07;100.00;101870.91;5227380;28;20024;-78
2022/11/13 08:42:09;;;;;;;27.00;16.20;;;;;;;6.51;100.00;101864.09;5222681;28;20548;-78
2022/11/13 08:44:39;;;;;;;29.90;14.85;;;;;;;6.39;100.00;101858.88;5218843;28;20033;-78
2022/11/13 08:47:09;;;;;;;64.40;15.73;;;;;;;6.09;100.00;101866.59;5221192;28;20021;-78
2022/11/13 08:49:40;;;;;;;38.30;15.73;;;;;;;6.31;100.00;101858.00;5229177;28;20557;-78
2022/11/13 08:52:10;;;;;;;28.63;14.85;;;;;;;6.33;100.00;101870.97;5230378;28;20029;-78
2022/11/13 08:54:41;;;;;;;29.27;16.13;;;;;;;6.21;100.00;101860.56;5224042;28;20117;-78
2022/11/13 08:57:11;;;;;;;26.00;16.02;;;;;;;6.36;100.00;101860.59;5223310;28;20206;-77
2022/11/13 08:59:42;;;;;;;26.75;16.48;;;;;;;6.45;100.00;101856.28;5226687;28;20348;-78
2022/11/13 09:02:14;;;;;;;28.42;16.60;;;;;;;6.63;100.00;101856.31;5225977;28;20037;-78
2022/11/13 09:04:44;;;;;;;30.48;17.77;;;;;;;6.85;100.00;101857.19;5222703;28;20032;-75
2022/11/13 09:07:14;;;;;;;29.00;16.40;;;;;;;7.27;100.00;101855.41;5222585;28;20393;-76
2022/11/13 09:09:45;;;;;;;25.90;16.60;;;;;;;7.47;100.00;101851.03;5221667;28;20478;-76
2022/11/13 09:12:15;;;;;;;27.25;16.13;;;;;;;7.43;100.00;101850.19;5215293;28;20099;-76
2022/11/13 09:14:45;;;;;;;26.45;15.32;;;;;;;7.61;100.00;101846.66;5218140;28;20033;-76
2022/11/13 09:17:16;;;;;;;25.77;14.93;;;;;;;7.25;100.00;101843.31;5218685;28;20021;-76
2022/11/13 09:19:46;;;;;;;24.80;14.32;;;;;;;7.48;100.00;101857.97;5219509;28;20021;-73
2022/11/13 09:22:17;;;;;;;26.95;15.65;;;;;;;7.48;100.00;101848.44;5214840;28;20162;-74
2022/11/13 09:24:47;;;;;;;25.13;14.90;;;;;;;7.34;100.00;101850.19;5217382;28;20029;-74
2022/11/13 09:27:17;;;;;;;26.60;15.38;;;;;;;7.70;100.00;101844.88;5218677;28;20047;-73
2022/11/13 09:29:48;;;;;;;27.55;15.90;;;;;;;7.83;100.00;101859.59;5213639;28;20040;-73
2022/11/13 09:32:18;;;;;;;25.90;15.40;;;;;;;7.36;100.00;101858.00;5217043;28;20024;-74
2022/11/13 09:34:48;;;;;;;26.83;16.05;;;;;;;7.52;100.00;101855.34;5216225;28;20116;-73
2022/11/13 09:37:19;;;;;;;26.42;15.38;;;;;;;7.44;100.00;101851.03;5209328;28;20396;-74
2022/11/13 09:39:49;;;;;;;28.80;15.85;;;;;;;7.13;100.00;101853.72;5218399;28;20033;-73
2022/11/13 09:42:23;;;;;;;31.58;17.08;;;;;;;6.99;100.00;101855.44;5220624;28;20032;-73
2022/11/13 09:45:00;;;;;;;32.42;18.08;;;;;;;7.22;100.00;101844.16;5215171;28;20365;-73
2022/11/13 09:47:35;;;;;;;29.85;16.90;;;;;;;7.46;100.00;101851.91;5210737;28;20033;-74
2022/11/13 09:50:16;;;;;;;29.85;17.20;;;;;;;7.50;100.00;101857.09;5224074;28;20028;-73
2022/11/13 09:52:48;;;;;;;30.70;17.23;;;;;;;7.36;100.00;101858.84;5215079;28;20108;-72
2022/11/13 09:55:22;;;;;;;30.30;16.95;;;;;;;7.46;100.00;101850.19;5216258;28;20060;-73
2022/11/13 09:58:04;;;;;;;32.17;18.17;;;;;;;7.44;100.00;101851.03;5214068;28;20033;-74
2022/11/13 10:00:35;;;;;;;31.17;17.25;;;;;;;7.34;100.00;101847.59;5212169;28;20043;-72
2022/11/13 10:03:18;;;;;;;32.45;16.35;;;;;;;7.60;100.00;101835.41;5218102;28;20028;-74
2022/11/13 10:06:15;;;;;;;29.92;16.15;;;;;;;7.38;100.00;101836.31;5216383;28;20021;-73
2022/11/13 10:09:00;;;;;;;29.05;16.33;;;;;;;7.67;100.00;101824.09;5214862;28;20025;-72
2022/11/13 10:11:33;;;;;;;28.75;15.90;;;;;;;7.86;100.00;101817.94;5220491;28;20557;-73
2022/11/13 10:14:16;;;;;;;26.05;15.95;;;;;;;7.64;100.00;101812.81;5212984;28;20076;-73
2022/11/13 10:16:57;;;;;;;28.63;17.00;;;;;;;7.71;100.00;101810.19;5211420;28;20040;-75
2022/11/13 10:19:51;;;;;;;29.75;17.20;;;;;;;8.04;100.00;101798.75;5214442;28;20024;-73
2022/11/13 10:22:39;;;;;;;30.00;16.75;;;;;;;8.21;100.00;101799.56;5215591;28;20060;-74
2022/11/13 10:25:13;;;;;;;30.80;17.00;;;;;;;8.44;100.00;101795.03;5210228;28;20268;-75
2022/11/13 10:27:50;;;;;;;31.38;16.73;;;;;;;8.53;100.00;101803.66;5216061;28;20256;-73
2022/11/13 10:30:25;;;;;;;29.50;16.45;;;;;;;8.58;100.00;101799.25;5215718;28;20391;-73
2022/11/13 10:33:07;;;;;;;30.55;16.52;;;;;;;8.63;100.00;101791.41;5215781;28;20041;-73
2022/11/13 10:35:38;;;;;;;29.25;15.80;;;;;;;8.76;100.00;101798.25;5213031;28;20041;-73
2022/11/13 10:38:37;;;;;;;26.10;16.17;;;;;;;8.85;100.00;101791.22;5220307;28;20065;-74
2022/11/13 10:41:14;;;;;;;26.65;15.48;;;;;;;8.87;100.00;101792.06;5224120;28;20055;-72
2022/11/13 10:43:54;;;;;;;27.77;15.18;;;;;;;9.00;100.00;101783.25;5231369;28;20646;-73
2022/11/13 10:46:28;;;;;;;25.00;14.35;;;;;;;8.87;100.00;101786.84;5231563;28;20032;-75
2022/11/13 10:49:12;;;;;;;23.17;13.32;;;;;;;9.13;100.00;101778.78;5219780;28;20529;-73
2022/11/13 10:51:42;;;;;;;24.08;14.00;;;;;;;9.10;100.00;101771.84;5223643;28;20040;-73
2022/11/13 10:54:21;;;;;;;24.02;14.27;;;;;;;9.34;100.00;101771.59;5211980;22;20062;-75
2022/11/13 10:57:01;;;;;;;25.95;14.18;;;;;;;9.40;100.00;101769.78;5180626;28;20479;-74
2022/11/13 10:59:41;;;;;;;25.05;13.27;;;;;;;9.56;100.00;101767.81;5180817;28;20053;-72
2022/11/13 11:02:21;;;;;;;26.23;14.45;;;;;;;9.52;100.00;101776.59;5182896;28;20098;-72
2022/11/13 11:05:06;;;;;;;23.65;13.75;;;;;;;9.53;100.00;101773.09;5180374;28;20081;-72
2022/11/13 11:07:40;;;;;;;24.88;12.85;;;;;;;9.49;100.00;101771.41;5178446;28;20356;-73
2022/11/13 11:10:20;;;;;;;29.17;14.30;;;;;;;9.54;100.00;101777.41;5184061;28;20038;-72
2022/11/13 11:12:56;;;;;;;23.38;13.48;;;;;;;9.46;100.00;101771.44;5188148;28;20117;-73
2022/11/13 11:15:43;;;;;;;25.10;13.85;;;;;;;9.34;100.00;101774.19;5186443;28;20041;-71
2022/11/13 11:18:37;;;;;;;26.33;13.88;;;;;;;9.20;100.00;101760.44;5184535;28;20080;-72
2022/11/13 11:21:14;;;;;;;25.88;14.88;;;;;;;9.23;100.00;101760.41;5181857;28;20041;-72
2022/11/13 11:23:54;;;;;;;28.50;14.93;;;;;;;9.26;100.00;101756.00;5189519;28;20505;-72
2022/11/13 11:26:37;;;;;;;25.65;14.88;;;;;;;8.99;100.00;101750.25;5188901;28;20576;-71
2022/11/13 11:29:29;;;;;;;26.80;14.20;;;;;;;8.84;100.00;101745.19;5184104;28;20033;-73
2022/11/13 11:32:24;;;;;;;27.20;14.70;;;;;;;8.97;100.00;101740.69;5190517;28;20029;-73
2022/11/13 11:35:07;;;;;;;25.30;13.77;;;;;;;8.88;100.00;101736.44;5187658;28;20042;-72